Time;durP1;ratioP1;P1;durP2;ratioP2;P2;SDS_P1;SDS_P2;PMS_P1;PMS_P2;Temp;Humidity;BMP_temperature;BMP_pressure;BME280_temperature;BME280_humidity;BME280_pressure;Samples;Min_cycle;Max_cycle;Signal;HPM_P1;HPM_P2
2022/10/14 00:01:31;;;;;;;3.20;2.58;;;16.70;65.20;;;;;;5069891;28;20053;-75
2022/10/14 00:03:58;;;;;;;3.55;2.42;;;16.70;65.20;;;;;;5071541;28;20051;-75
2022/10/14 00:06:26;;;;;;;5.28;3.13;;;16.70;65.20;;;;;;5070422;28;20058;-75
2022/10/14 00:08:53;;;;;;;3.28;2.55;;;16.70;65.20;;;;;;5070015;28;20056;-75
2022/10/14 00:11:22;;;;;;;4.60;3.08;;;16.70;65.20;;;;;;5070122;28;20136;-74
2022/10/14 00:13:49;;;;;;;3.72;2.83;;;16.70;65.20;;;;;;5070537;28;20131;-75
2022/10/14 00:16:16;;;;;;;3.53;2.75;;;16.70;65.20;;;;;;5070205;28;20143;-75
2022/10/14 00:18:43;;;;;;;3.75;2.90;;;16.60;65.20;;;;;;5070202;28;20063;-75
2022/10/14 00:21:09;;;;;;;4.47;2.70;;;16.70;65.20;;;;;;5071229;28;20404;-75
2022/10/14 00:23:36;;;;;;;3.85;2.78;;;16.60;65.20;;;;;;5071159;28;20127;-75
2022/10/14 00:26:03;;;;;;;3.97;3.20;;;18.40;66.10;;;;;;5070068;28;20702;-75
2022/10/14 00:28:31;;;;;;;3.60;2.97;;;16.60;65.20;;;;;;5070092;28;20052;-75
2022/10/14 00:30:59;;;;;;;3.33;2.85;;;16.60;65.20;;;;;;5069914;28;20136;-75
2022/10/14 00:33:26;;;;;;;3.20;2.60;;;16.60;65.20;;;;;;5071210;28;20049;-75
2022/10/14 00:35:54;;;;;;;3.42;2.92;;;16.60;65.20;;;;;;5069997;28;20053;-75
2022/10/14 00:38:21;;;;;;;3.67;3.00;;;16.60;65.20;;;;;;5071473;28;20401;-75
2022/10/14 00:40:47;;;;;;;3.08;2.72;;;16.70;65.30;;;;;;5073576;28;20062;-75
2022/10/14 00:43:14;;;;;;;4.03;2.63;;;16.70;65.30;;;;;;5073750;28;20135;-75
2022/10/14 00:45:42;;;;;;;3.65;3.00;;;16.60;65.20;;;;;;5073787;28;20084;-75
2022/10/14 00:48:09;;;;;;;3.17;2.67;;;16.60;65.20;;;;;;5073374;28;20048;-75
2022/10/14 00:50:36;;;;;;;3.20;2.80;;;16.60;65.20;;;;;;5073167;28;20052;-75
2022/10/14 00:53:03;;;;;;;3.92;3.40;;;16.60;65.20;;;;;;5073547;28;20056;-75
2022/10/14 00:55:30;;;;;;;3.83;3.15;;;16.60;65.20;;;;;;5073729;28;20052;-75
2022/10/14 00:57:56;;;;;;;3.08;2.72;;;16.60;65.20;;;;;;5073319;28;20049;-75
2022/10/14 01:00:23;;;;;;;3.30;2.90;;;16.60;65.20;;;;;;5074308;28;20044;-75
2022/10/14 01:02:51;;;;;;;3.22;2.80;;;16.60;65.80;;;;;;5073323;28;20056;-75
2022/10/14 01:05:18;;;;;;;3.95;2.83;;;16.60;65.20;;;;;;5073256;28;20060;-75
2022/10/14 01:07:54;;;;;;;4.00;3.03;;;16.60;65.20;;;;;;5072970;28;20059;-74
2022/10/14 01:10:24;;;;;;;3.72;2.90;;;16.60;65.20;;;;;;5053076;28;20057;-75
2022/10/14 01:13:00;;;;;;;5.15;3.03;;;16.60;65.30;;;;;;5053109;28;20413;-74
2022/10/14 01:15:31;;;;;;;4.50;3.47;;;16.60;65.20;;;;;;5053192;28;20133;-74
2022/10/14 01:18:10;;;;;;;3.35;2.80;;;16.60;65.30;;;;;;5054139;28;20053;-74
2022/10/14 01:20:45;;;;;;;4.38;3.00;;;16.60;65.20;;;;;;5053990;28;20140;-75
2022/10/14 01:23:41;;;;;;;3.90;3.17;;;16.60;65.30;;;;;;5062313;28;20079;-74
2022/10/14 01:26:21;;;;;;;4.32;2.70;;;16.60;65.20;;;;;;5066582;28;20416;-75
2022/10/14 01:28:51;;;;;;;4.20;3.45;;;16.60;65.30;;;;;;5073891;28;20057;-74
2022/10/14 01:31:20;;;;;;;3.40;2.80;;;16.50;65.30;;;;;;5053696;28;20068;-75
2022/10/14 01:33:46;;;;;;;4.00;2.97;;;16.50;65.20;;;;;;5052503;28;20053;-75
2022/10/14 01:36:16;;;;;;;3.78;2.75;;;16.50;65.20;;;;;;5053731;28;20136;-75
2022/10/14 01:38:44;;;;;;;4.82;3.22;;;16.60;65.30;;;;;;5057394;28;20044;-74
2022/10/14 01:41:14;;;;;;;3.70;3.05;;;16.60;65.30;;;;;;5073868;28;20135;-74
2022/10/14 01:43:40;;;;;;;3.53;2.90;;;16.60;65.30;;;;;;5072833;28;20477;-74
2022/10/14 01:46:08;;;;;;;4.30;3.13;;;16.50;65.20;;;;;;5073500;28;20048;-74
2022/10/14 01:48:37;;;;;;;3.38;2.83;;;16.50;65.20;;;;;;5072723;28;20480;-74
2022/10/14 01:51:06;;;;;;;3.45;2.80;;;16.50;65.70;;;;;;5071103;28;20131;-74
2022/10/14 01:53:36;;;;;;;4.18;3.05;;;16.50;65.20;;;;;;5073563;28;20135;-75
2022/10/14 01:56:02;;;;;;;3.55;3.17;;;16.50;65.20;;;;;;5072195;28;20067;-75
2022/10/14 01:58:30;;;;;;;4.47;2.90;;;16.50;65.20;;;;;;5071921;28;20472;-74
2022/10/14 02:00:57;;;;;;;3.50;2.83;;;16.50;65.20;;;;;;5073043;28;20044;-75
2022/10/14 02:03:23;;;;;;;4.45;3.00;;;16.50;65.20;;;;;;5072068;28;20070;-75
2022/10/14 02:05:53;;;;;;;4.00;3.25;;;16.50;65.20;;;;;;5055831;28;20131;-75
2022/10/14 02:08:24;;;;;;;3.65;2.88;;;16.50;65.20;;;;;;5073237;28;20136;-75
2022/10/14 02:11:04;;;;;;;4.25;3.47;;;16.50;65.20;;;;;;5071816;28;20078;-75
2022/10/14 02:13:49;;;;;;;3.53;2.85;;;16.50;65.20;;;;;;5071724;28;20048;-75
2022/10/14 02:16:23;;;;;;;3.95;2.90;;;16.50;65.30;;;;;;5069184;28;20539;-75
2022/10/14 02:18:51;;;;;;;4.50;3.33;;;16.50;65.30;;;;;;5071745;28;20462;-75
2022/10/14 02:21:22;;;;;;;4.43;3.03;;;16.50;65.30;;;;;;5071515;28;20051;-75
2022/10/14 02:23:50;;;;;;;3.38;2.92;;;16.50;65.20;;;;;;5071688;28;20053;-75
2022/10/14 02:26:17;;;;;;;3.70;2.90;;;16.50;65.30;;;;;;5071631;28;20404;-75
2022/10/14 02:28:43;;;;;;;3.78;3.15;;;16.50;65.30;;;;;;5072029;28;20057;-75
2022/10/14 02:31:12;;;;;;;4.03;2.92;;;16.50;65.20;;;;;;5072524;28;20053;-75
2022/10/14 02:33:40;;;;;;;4.15;3.00;;;16.50;65.20;;;;;;5071625;28;20052;-75
2022/10/14 02:36:07;;;;;;;4.00;3.08;;;16.50;65.20;;;;;;5071762;28;20484;-75
2022/10/14 02:38:35;;;;;;;3.53;3.03;;;16.50;65.20;;;;;;5071514;28;20059;-75
2022/10/14 02:41:04;;;;;;;3.30;2.80;;;16.50;65.20;;;;;;5070806;28;20496;-75
2022/10/14 02:43:30;;;;;;;4.13;3.15;;;16.50;65.30;;;;;;5071343;28;20551;-75
2022/10/14 02:45:58;;;;;;;3.20;2.72;;;16.50;65.20;;;;;;5071219;28;20131;-75
2022/10/14 02:48:24;;;;;;;3.35;2.80;;;16.50;65.20;;;;;;5071647;28;20125;-75
2022/10/14 02:50:51;;;;;;;3.35;2.58;;;16.50;65.20;;;;;;5071320;28;20676;-75
2022/10/14 02:53:18;;;;;;;3.70;2.83;;;16.50;65.30;;;;;;5071053;28;20059;-75
2022/10/14 02:55:46;;;;;;;3.53;2.83;;;16.50;65.20;;;;;;5070863;28;20409;-75
2022/10/14 02:58:13;;;;;;;3.75;3.22;;;16.50;65.30;;;;;;5070966;28;20072;-75
2022/10/14 03:00:39;;;;;;;3.65;3.05;;;16.50;65.30;;;;;;5070790;28;20139;-75
2022/10/14 03:03:06;;;;;;;3.42;3.10;;;16.50;65.30;;;;;;5070650;28;20052;-75
2022/10/14 03:05:33;;;;;;;3.80;3.22;;;16.40;65.20;;;;;;5071126;28;20056;-75
2022/10/14 03:07:59;;;;;;;3.78;2.65;;;16.40;65.20;;;;;;5072257;28;20115;-75
2022/10/14 03:10:26;;;;;;;3.50;2.67;;;16.40;65.30;;;;;;5070345;28;20052;-75
2022/10/14 03:12:54;;;;;;;3.05;2.47;;;16.50;65.30;;;;;;5071103;28;20063;-75
2022/10/14 03:15:21;;;;;;;3.42;2.90;;;16.50;65.30;;;;;;5071023;28;20052;-75
2022/10/14 03:17:47;;;;;;;3.20;2.90;;;16.40;65.30;;;;;;5070859;28;20145;-75
2022/10/14 03:20:14;;;;;;;3.75;2.80;;;16.40;65.30;;;;;;5070642;28;20052;-75
2022/10/14 03:22:41;;;;;;;3.78;3.10;;;16.40;65.20;;;;;;5071090;28;20186;-75
2022/10/14 03:25:09;;;;;;;4.07;3.00;;;16.40;65.30;;;;;;5070818;28;20507;-75
2022/10/14 03:27:35;;;;;;;4.22;2.90;;;16.40;65.30;;;;;;5070635;28;20058;-75
2022/10/14 03:30:04;;;;;;;3.33;2.80;;;16.40;65.30;;;;;;5070546;28;20534;-75
2022/10/14 03:32:31;;;;;;;3.40;2.80;;;15.90;65.00;;;;;;5070746;28;20135;-75
2022/10/14 03:34:58;;;;;;;3.58;2.80;;;16.40;65.30;;;;;;5070808;28;20479;-75
2022/10/14 03:37:24;;;;;;;4.35;2.70;;;16.40;65.30;;;;;;5070134;28;20056;-75
2022/10/14 03:39:51;;;;;;;3.30;2.88;;;16.40;65.30;;;;;;5070521;28;20060;-75
2022/10/14 03:42:18;;;;;;;3.47;2.80;;;16.40;65.30;;;;;;5070786;28;20118;-75
2022/10/14 03:44:48;;;;;;;3.13;2.75;;;16.40;65.30;;;;;;5071772;28;20409;-75
2022/10/14 03:47:16;;;;;;;2.95;2.65;;;16.40;65.30;;;;;;5070238;28;20052;-74
2022/10/14 03:49:43;;;;;;;3.85;2.85;;;16.40;65.30;;;;;;5071722;28;20075;-75
2022/10/14 03:52:09;;;;;;;3.65;2.78;;;16.40;65.30;;;;;;5070341;28;20082;-75
2022/10/14 03:54:36;;;;;;;3.65;2.80;;;16.40;65.30;;;;;;5070508;28;20056;-74
2022/10/14 03:57:03;;;;;;;3.20;2.72;;;16.40;65.30;;;;;;5070475;28;20067;-74
2022/10/14 03:59:29;;;;;;;2.72;2.20;;;16.30;65.60;;;;;;5070127;28;20058;-75
2022/10/14 04:01:56;;;;;;;2.90;2.33;;;16.40;65.20;;;;;;5071294;28;20045;-75
2022/10/14 04:04:24;;;;;;;3.35;2.90;;;16.40;65.20;;;;;;5071609;28;20052;-74
2022/10/14 04:06:51;;;;;;;2.78;2.40;;;16.40;65.20;;;;;;5071017;28;20128;-74
2022/10/14 04:09:18;;;;;;;3.20;2.35;;;16.40;65.30;;;;;;5070368;28;20075;-74
2022/10/14 04:11:45;;;;;;;3.67;2.35;;;16.40;65.20;;;;;;5070205;28;20060;-74
2022/10/14 04:14:11;;;;;;;2.72;2.28;;;16.40;65.30;;;;;;5073634;28;20044;-74
2022/10/14 04:16:38;;;;;;;3.05;2.40;;;16.40;65.30;;;;;;5074480;28;20060;-74
2022/10/14 04:19:05;;;;;;;3.08;2.25;;;16.30;65.20;;;;;;5073920;28;20049;-74
2022/10/14 04:21:33;;;;;;;2.80;2.40;;;16.40;65.30;;;;;;5073617;28;20063;-74
2022/10/14 04:23:59;;;;;;;2.78;2.50;;;16.40;65.30;;;;;;5074278;28;20147;-74
2022/10/14 04:26:26;;;;;;;2.83;2.35;;;16.40;65.30;;;;;;5075470;28;20404;-75
2022/10/14 04:28:53;;;;;;;3.25;2.35;;;16.40;65.30;;;;;;5074111;28;20499;-74
2022/10/14 04:31:21;;;;;;;2.67;2.22;;;16.40;65.30;;;;;;5074576;28;20062;-74
2022/10/14 04:33:48;;;;;;;2.55;2.28;;;16.40;65.30;;;;;;5075037;28;20048;-74
2022/10/14 04:36:14;;;;;;;2.50;2.28;;;16.40;65.30;;;;;;5073654;28;20060;-75
2022/10/14 04:38:42;;;;;;;2.53;2.25;;;16.40;65.30;;;;;;5072367;28;20132;-74
2022/10/14 04:41:09;;;;;;;2.60;2.08;;;16.40;65.30;;;;;;5074097;28;20044;-74
2022/10/14 04:43:36;;;;;;;2.28;2.08;;;16.40;65.30;;;;;;5075025;28;20127;-74
2022/10/14 04:46:03;;;;;;;3.17;2.47;;;16.40;65.30;;;;;;5073787;28;20059;-75
2022/10/14 04:48:30;;;;;;;2.50;2.30;;;16.30;65.20;;;;;;5073781;28;20084;-75
2022/10/14 04:50:56;;;;;;;2.88;2.35;;;16.40;65.30;;;;;;5073245;28;20060;-74
2022/10/14 04:53:23;;;;;;;2.78;2.33;;;16.30;65.20;;;;;;5073620;28;20132;-75
2022/10/14 04:55:51;;;;;;;2.30;2.10;;;16.30;65.20;;;;;;5073558;28;20052;-75
2022/10/14 04:58:18;;;;;;;2.47;2.10;;;16.30;65.20;;;;;;5074548;28;20127;-75
2022/10/14 05:00:45;;;;;;;2.35;2.15;;;16.30;65.20;;;;;;5073327;28;20131;-75
2022/10/14 05:03:11;;;;;;;2.65;2.08;;;16.30;65.20;;;;;;5073075;28;20056;-75
2022/10/14 05:05:38;;;;;;;2.20;1.98;;;16.30;65.20;;;;;;5073248;28;20060;-75
2022/10/14 05:08:05;;;;;;;4.47;2.22;;;16.30;65.20;;;;;;5073425;28;20058;-75
2022/10/14 05:10:33;;;;;;;2.72;2.42;;;16.30;65.20;;;;;;5073135;28;20063;-75
2022/10/14 05:13:01;;;;;;;2.38;2.00;;;16.30;65.30;;;;;;5074278;28;20052;-75
2022/10/14 05:15:28;;;;;;;2.47;2.10;;;16.30;65.30;;;;;;5074091;28;20147;-75
2022/10/14 05:17:54;;;;;;;2.22;2.00;;;16.30;65.30;;;;;;5073382;28;20424;-75
2022/10/14 05:20:21;;;;;;;3.17;2.00;;;15.50;66.10;;;;;;5072650;28;20056;-75
2022/10/14 05:22:48;;;;;;;2.30;2.10;;;16.30;65.30;;;;;;5073230;28;20057;-75
2022/10/14 05:25:15;;;;;;;2.50;2.03;;;16.30;65.80;;;;;;5072927;28;20063;-75
2022/10/14 05:27:41;;;;;;;2.65;2.00;;;16.30;65.20;;;;;;5073426;28;20128;-75
2022/10/14 05:30:11;;;;;;;2.60;2.30;;;16.30;65.20;;;;;;5052902;28;20052;-75
2022/10/14 05:32:37;;;;;;;2.45;2.25;;;16.30;65.20;;;;;;5052801;28;20049;-75
2022/10/14 05:35:05;;;;;;;2.60;2.17;;;16.30;65.20;;;;;;5061730;28;20127;-75
2022/10/14 05:37:31;;;;;;;2.53;1.80;;;16.30;65.20;;;;;;5074015;28;20056;-75
2022/10/14 05:39:58;;;;;;;2.20;2.00;;;16.30;65.20;;;;;;5071930;28;20052;-75
2022/10/14 05:42:25;;;;;;;2.50;2.30;;;16.30;65.20;;;;;;5072377;28;20137;-75
2022/10/14 05:44:52;;;;;;;2.70;2.25;;;16.30;65.20;;;;;;5073804;28;20156;-75
2022/10/14 05:47:20;;;;;;;3.40;2.42;;;16.30;65.20;;;;;;5072633;28;20052;-75
2022/10/14 05:49:46;;;;;;;2.72;2.10;;;16.30;65.20;;;;;;5072303;28;20045;-74
2022/10/14 05:52:13;;;;;;;2.60;1.88;;;16.30;65.20;;;;;;5072548;28;20139;-75
2022/10/14 05:54:40;;;;;;;2.13;1.92;;;16.30;65.20;;;;;;5072642;28;20060;-74
2022/10/14 05:57:06;;;;;;;2.75;2.05;;;16.30;65.20;;;;;;5073373;28;20049;-74
2022/10/14 05:59:34;;;;;;;2.40;1.98;;;16.30;65.20;;;;;;5072008;28;20055;-74
2022/10/14 06:02:00;;;;;;;2.42;2.10;;;16.30;65.20;;;;;;5072208;28;20687;-74
2022/10/14 06:04:29;;;;;;;2.50;2.10;;;16.30;65.20;;;;;;5072359;28;20060;-75
2022/10/14 06:06:55;;;;;;;2.58;2.03;;;16.30;65.20;;;;;;5072038;28;20418;-74
2022/10/14 06:09:22;;;;;;;2.72;1.90;;;16.30;65.20;;;;;;5072229;28;20052;-74
2022/10/14 06:11:49;;;;;;;3.15;2.38;;;16.30;65.20;;;;;;5072146;28;20711;-74
2022/10/14 06:14:15;;;;;;;3.25;2.33;;;16.30;65.20;;;;;;5072020;28;20052;-74
2022/10/14 06:16:42;;;;;;;3.55;2.40;;;16.30;65.20;;;;;;5072034;28;20056;-74
2022/10/14 06:19:09;;;;;;;4.35;2.20;;;16.40;65.20;;;;;;5071878;28;20048;-74
2022/10/14 06:21:37;;;;;;;2.35;1.90;;;16.40;65.10;;;;;;5072671;28;20083;-74
2022/10/14 06:24:04;;;;;;;2.95;2.00;;;16.40;65.00;;;;;;5071383;28;20052;-74
2022/10/14 06:26:30;;;;;;;2.70;2.03;;;16.50;65.00;;;;;;5071202;28;20136;-73
2022/10/14 06:28:57;;;;;;;2.63;2.10;;;16.60;64.90;;;;;;5071643;28;20159;-74
2022/10/14 06:31:24;;;;;;;3.53;2.10;;;16.60;64.80;;;;;;5071067;28;20055;-74
2022/10/14 06:33:50;;;;;;;3.40;2.30;;;16.70;64.70;;;;;;5071885;28;20357;-74
2022/10/14 06:36:17;;;;;;;2.67;2.22;;;16.70;64.70;;;;;;5070419;28;20127;-74
2022/10/14 06:38:45;;;;;;;3.38;2.20;;;16.80;64.60;;;;;;5068062;28;20050;-74
2022/10/14 06:41:12;;;;;;;3.03;1.98;;;16.80;64.60;;;;;;5070327;28;20127;-75
2022/10/14 06:43:39;;;;;;;2.53;2.10;;;16.80;64.50;;;;;;5070110;28;20058;-74
2022/10/14 06:46:05;;;;;;;3.53;2.40;;;16.90;64.50;;;;;;5071304;28;20062;-75
2022/10/14 06:48:32;;;;;;;2.90;2.28;;;16.90;64.40;;;;;;5069254;28;20049;-74
2022/10/14 06:50:59;;;;;;;2.95;2.00;;;17.00;64.50;;;;;;5069134;28;20124;-74
2022/10/14 06:53:26;;;;;;;2.72;1.98;;;17.00;64.40;;;;;;5069524;28;20409;-74
2022/10/14 06:55:59;;;;;;;4.47;2.38;;;17.00;64.90;;;;;;5069655;28;20541;-74
2022/10/14 06:58:26;;;;;;;2.65;1.90;;;17.10;64.40;;;;;;5069303;28;20048;-74
2022/10/14 07:00:52;;;;;;;2.83;2.10;;;17.10;64.40;;;;;;5069022;28;20048;-74
2022/10/14 07:03:19;;;;;;;2.55;2.20;;;17.10;64.40;;;;;;5070550;28;20481;-74
2022/10/14 07:05:46;;;;;;;3.10;2.10;;;17.10;64.40;;;;;;5070839;28;20048;-74
2022/10/14 07:08:13;;;;;;;3.00;2.17;;;17.20;64.30;;;;;;5070802;28;20131;-74
2022/10/14 07:10:39;;;;;;;2.97;2.30;;;17.20;64.30;;;;;;5070517;28;20524;-74
2022/10/14 07:13:07;;;;;;;2.50;1.92;;;17.20;64.30;;;;;;5070543;28;20048;-74
2022/10/14 07:15:34;;;;;;;2.83;2.05;;;17.20;64.30;;;;;;5071418;28;20048;-74
2022/10/14 07:18:01;;;;;;;2.85;2.15;;;15.30;63.30;;;;;;5071738;28;20432;-74
2022/10/14 07:20:28;;;;;;;4.57;2.25;;;17.30;64.30;;;;;;5067424;28;20478;-74
2022/10/14 07:22:55;;;;;;;3.10;2.13;;;17.30;64.30;;;;;;5071577;28;20079;-74
2022/10/14 07:25:22;;;;;;;2.95;2.13;;;17.30;64.30;;;;;;5070625;28;20489;-74
2022/10/14 07:27:49;;;;;;;3.35;2.22;;;17.30;64.30;;;;;;5067954;28;20128;-74
2022/10/14 07:30:17;;;;;;;2.63;2.03;;;17.30;64.30;;;;;;5069907;28;20489;-75
2022/10/14 07:32:43;;;;;;;3.08;2.10;;;17.30;64.20;;;;;;5070546;28;20068;-75
2022/10/14 07:35:10;;;;;;;3.47;2.08;;;17.40;64.20;;;;;;5071668;28;20040;-75
2022/10/14 07:37:37;;;;;;;2.78;2.10;;;17.40;64.20;;;;;;5070879;28;20055;-75
2022/10/14 07:40:04;;;;;;;3.40;2.20;;;17.40;64.20;;;;;;5071551;28;20186;-75
2022/10/14 07:42:31;;;;;;;4.05;2.33;;;17.40;64.10;;;;;;5069938;28;20102;-73
2022/10/14 07:44:58;;;;;;;2.90;1.90;;;17.40;64.10;;;;;;5070746;28;20048;-73
2022/10/14 07:47:26;;;;;;;3.08;2.10;;;17.40;64.10;;;;;;5069712;28;20048;-73
2022/10/14 07:49:52;;;;;;;2.40;1.95;;;17.40;64.20;;;;;;5066651;28;20048;-73
2022/10/14 07:52:19;;;;;;;3.85;2.10;;;17.40;64.20;;;;;;5070303;28;20559;-73
2022/10/14 07:54:46;;;;;;;2.38;1.88;;;17.40;64.20;;;;;;5053605;28;20044;-73
2022/10/14 07:57:12;;;;;;;2.88;2.20;;;17.50;64.30;;;;;;5066999;28;20070;-73
2022/10/14 07:59:42;;;;;;;2.35;1.80;;;17.40;64.20;;;;;;5071170;28;20037;-73
2022/10/14 08:02:10;;;;;;;3.28;2.03;;;17.50;64.20;;;;;;5070685;28;20041;-73
2022/10/14 08:04:39;;;;;;;2.95;2.00;;;17.50;64.20;;;;;;5070329;28;20055;-73
2022/10/14 08:07:06;;;;;;;2.58;1.92;;;17.50;64.20;;;;;;5071030;28;20390;-73
2022/10/14 08:09:35;;;;;;;2.63;2.00;;;17.40;64.20;;;;;;5067473;28;20503;-73
2022/10/14 08:12:02;;;;;;;3.47;2.00;;;17.40;64.20;;;;;;5069604;28;20063;-73
2022/10/14 08:14:29;;;;;;;2.05;1.85;;;17.40;64.20;;;;;;5071581;28;20056;-74
2022/10/14 08:16:55;;;;;;;3.00;1.90;;;17.40;64.20;;;;;;5071813;28;20059;-74
2022/10/14 08:19:22;;;;;;;2.90;1.60;;;17.40;64.20;;;;;;5071829;28;20488;-74
2022/10/14 08:21:50;;;;;;;2.25;1.83;;;17.40;64.20;;;;;;5070116;28;20492;-74
2022/10/14 08:24:17;;;;;;;2.45;2.05;;;17.40;64.20;;;;;;5070351;28;20052;-75
2022/10/14 08:26:49;;;;;;;2.20;2.00;;;17.40;64.20;;;;;;5071553;28;20049;-74
2022/10/14 08:29:16;;;;;;;2.00;1.67;;;17.40;64.20;;;;;;5070505;28;20138;-74
2022/10/14 08:31:43;;;;;;;2.00;1.80;;;17.30;64.20;;;;;;5071248;28;20055;-74
2022/10/14 08:34:10;;;;;;;3.28;1.90;;;17.40;64.30;;;;;;5071458;28;20490;-74
2022/10/14 08:36:37;;;;;;;2.60;1.90;;;17.40;64.30;;;;;;5070917;28;20052;-74
2022/10/14 08:39:05;;;;;;;2.40;1.80;;;17.40;64.30;;;;;;5071540;28;20460;-74
2022/10/14 08:42:02;;;;;;;2.28;1.88;;;17.30;64.30;;;;;;5069789;28;20105;-74
2022/10/14 08:44:32;;;;;;;2.00;1.77;;;17.30;64.20;;;;;;5067937;28;20052;-74
2022/10/14 08:47:00;;;;;;;2.20;1.90;;;17.30;64.30;;;;;;5066793;28;20054;-74
2022/10/14 08:49:28;;;;;;;2.67;1.90;;;17.30;64.30;;;;;;5069548;28;20056;-74
2022/10/14 08:51:57;;;;;;;2.17;1.90;;;17.30;64.30;;;;;;5069384;28;20053;-74
2022/10/14 08:54:29;;;;;;;2.20;1.80;;;17.30;64.30;;;;;;5069709;28;20052;-74
2022/10/14 08:56:56;;;;;;;2.65;1.90;;;17.30;64.30;;;;;;5069662;28;20055;-74
2022/10/14 08:59:23;;;;;;;2.47;1.90;;;17.30;64.30;;;;;;5070333;28;20052;-74
2022/10/14 09:01:51;;;;;;;2.55;1.67;;;17.30;64.30;;;;;;5074064;28;20432;-74
2022/10/14 09:04:18;;;;;;;2.35;1.80;;;17.30;64.30;;;;;;5071758;28;20404;-74
2022/10/14 09:06:46;;;;;;;2.15;1.83;;;17.30;64.30;;;;;;5073354;28;20052;-74
2022/10/14 09:09:16;;;;;;;2.67;1.83;;;17.30;64.30;;;;;;5073949;28;20047;-74
2022/10/14 09:11:46;;;;;;;2.60;2.15;;;17.30;64.30;;;;;;5072354;28;20459;-74
2022/10/14 09:14:15;;;;;;;2.70;1.88;;;17.30;64.30;;;;;;5072255;28;20135;-74
2022/10/14 09:16:44;;;;;;;2.67;2.10;;;17.30;64.30;;;;;;5073232;28;20060;-74
2022/10/14 09:19:14;;;;;;;2.17;1.63;;;17.20;64.30;;;;;;5073103;28;20049;-74
2022/10/14 09:21:43;;;;;;;2.20;2.00;;;17.30;64.40;;;;;;5072774;28;20057;-74
2022/10/14 09:24:12;;;;;;;3.33;2.05;;;17.20;64.30;;;;;;5072917;28;20052;-76
2022/10/14 09:26:40;;;;;;;2.33;2.05;;;17.30;64.40;;;;;;5073162;28;20062;-74
2022/10/14 09:29:14;;;;;;;2.40;1.90;;;17.20;64.30;;;;;;5070416;28;20055;-74
2022/10/14 09:31:40;;;;;;;2.25;1.90;;;17.30;64.30;;;;;;5072304;28;20056;-75
2022/10/14 09:34:08;;;;;;;2.58;1.83;;;17.20;64.30;;;;;;5072937;28;20056;-74
2022/10/14 09:36:35;;;;;;;2.28;1.92;;;17.30;64.40;;;;;;5071284;28;20058;-74
2022/10/14 09:39:02;;;;;;;2.13;1.75;;;17.20;64.30;;;;;;5073857;28;20408;-74
2022/10/14 09:41:30;;;;;;;2.90;2.13;;;17.20;64.40;;;;;;5072843;28;20053;-74
2022/10/14 09:44:20;;;;;;;3.85;2.17;;;17.20;64.30;;;;;;5073735;28;20045;-74
2022/10/14 09:46:51;;;;;;;2.60;2.05;;;17.20;64.20;;;;;;5072650;28;20048;-74
2022/10/14 09:49:22;;;;;;;3.15;2.17;;;17.20;64.30;;;;;;5073575;28;20053;-74
2022/10/14 09:51:49;;;;;;;3.10;2.10;;;17.20;64.40;;;;;;5072651;28;20627;-74
2022/10/14 09:54:22;;;;;;;3.38;2.20;;;17.30;64.40;;;;;;5072404;28;20064;-74
2022/10/14 09:56:48;;;;;;;2.50;1.80;;;17.30;64.40;;;;;;5072450;28;20131;-74
2022/10/14 09:59:18;;;;;;;3.72;2.10;;;17.20;64.30;;;;;;5072249;28;20063;-75
2022/10/14 10:01:49;;;;;;;2.30;1.90;;;17.20;64.30;;;;;;5072150;28;20056;-75
2022/10/14 10:04:27;;;;;;;2.80;1.95;;;17.20;64.30;;;;;;5072384;28;20052;-74
2022/10/14 10:06:54;;;;;;;2.88;2.17;;;17.20;64.30;;;;;;5072367;28;20067;-74
2022/10/14 10:09:21;;;;;;;3.85;2.15;;;17.20;64.40;;;;;;5072119;28;20089;-74
2022/10/14 10:11:48;;;;;;;2.00;1.80;;;17.20;64.40;;;;;;5071190;28;20051;-75
2022/10/14 10:14:18;;;;;;;2.90;2.00;;;17.20;64.40;;;;;;5072872;28;20054;-75
2022/10/14 10:16:45;;;;;;;4.00;2.35;;;17.20;64.40;;;;;;5071710;28;20455;-75
2022/10/14 10:19:29;;;;;;;2.70;1.95;;;17.20;64.40;;;;;;5073324;28;20166;-74
2022/10/14 10:22:15;;;;;;;3.53;2.40;;;17.20;64.30;;;;;;5071561;28;20450;-74
2022/10/14 10:24:43;;;;;;;2.30;1.98;;;17.10;64.50;;;;;;5070962;28;20048;-74
2022/10/14 10:27:19;;;;;;;3.28;2.30;;;17.10;64.50;;;;;;5071914;28;20044;-74
2022/10/14 10:29:47;;;;;;;3.35;2.10;;;17.20;64.50;;;;;;5069643;28;20040;-74
2022/10/14 10:32:14;;;;;;;3.20;2.10;;;17.20;64.50;;;;;;5072141;28;20119;-74
2022/10/14 10:34:59;;;;;;;2.72;2.28;;;17.20;64.50;;;;;;5071397;28;20052;-74
2022/10/14 10:37:27;;;;;;;4.07;2.30;;;17.10;64.50;;;;;;5069962;28;20060;-74
2022/10/14 10:40:17;;;;;;;3.40;2.38;;;17.10;64.50;;;;;;5070800;28;20053;-74
2022/10/14 10:42:50;;;;;;;4.50;2.38;;;17.10;64.50;;;;;;5056981;28;20086;-75
2022/10/14 10:45:24;;;;;;;2.65;2.08;;;17.10;64.50;;;;;;5068201;28;20110;-75
2022/10/14 10:47:53;;;;;;;3.17;2.17;;;17.10;64.50;;;;;;5069094;28;20147;-75
2022/10/14 10:50:30;;;;;;;2.50;2.15;;;17.10;64.50;;;;;;5071979;28;20509;-74
2022/10/14 10:53:17;;;;;;;2.83;2.05;;;17.10;64.50;;;;;;5070911;28;20124;-74
2022/10/14 10:55:48;;;;;;;3.08;2.25;;;17.10;64.50;;;;;;5071412;28;20458;-75
2022/10/14 10:58:18;;;;;;;;;;;17.10;64.50;;;;;;5069314;28;20497;-76
2022/10/14 11:00:48;;;;;;;3.47;2.72;;;16.80;66.50;;;;;;5068972;28;19964;-75
2022/10/14 11:03:27;;;;;;;3.63;2.58;;;17.20;64.60;;;;;;5071091;28;20553;-75
2022/10/14 11:05:57;;;;;;;3.33;2.45;;;17.30;64.30;;;;;;5071203;28;20127;-76
2022/10/14 11:14:32;;;;;;;6.35;2.72;;;17.40;64.10;;;;;;5069821;28;20040;-76
2022/10/14 11:17:03;;;;;;;3.80;2.58;;;17.40;64.10;;;;;;5070830;28;20048;-75
2022/10/14 11:19:33;;;;;;;3.22;2.53;;;17.40;64.10;;;;;;5071138;28;20138;-76
2022/10/14 11:22:04;;;;;;;4.47;2.63;;;17.40;64.10;;;;;;5070855;28;20048;-76
2022/10/14 11:24:35;;;;;;;3.40;2.40;;;17.40;64.10;;;;;;5070445;28;20054;-75
2022/10/14 11:27:07;;;;;;;3.38;2.40;;;17.40;64.10;;;;;;5070932;28;20131;-75
2022/10/14 11:29:53;;;;;;;6.22;2.72;;;17.40;64.10;;;;;;5070823;28;20053;-75
2022/10/14 11:32:23;;;;;;;4.25;2.65;;;17.40;64.10;;;;;;5071039;28;20087;-75
2022/10/14 11:34:57;;;;;;;3.92;2.78;;;17.40;64.30;;;;;;5070597;28;20127;-75
2022/10/14 11:37:28;;;;;;;3.83;2.60;;;17.40;64.20;;;;;;5070741;28;20408;-75
2022/10/14 11:39:57;;;;;;;5.85;2.90;;;17.40;64.30;;;;;;5070312;28;20398;-75
2022/10/14 11:42:27;;;;;;;4.00;2.80;;;17.40;64.30;;;;;;5070751;28;20412;-75
2022/10/14 11:45:01;;;;;;;5.38;2.80;;;17.40;64.30;;;;;;5070780;28;20151;-76
2022/10/14 11:47:31;;;;;;;6.03;3.13;;;17.40;64.30;;;;;;5070409;28;20058;-76
2022/10/14 11:50:00;;;;;;;5.95;3.10;;;17.30;64.30;;;;;;5070673;28;20068;-76
2022/10/14 11:52:28;;;;;;;5.82;3.17;;;17.30;64.30;;;;;;5070204;28;20059;-75
2022/10/14 11:54:57;;;;;;;3.83;2.70;;;17.40;64.30;;;;;;5069685;28;20421;-75
2022/10/14 11:57:27;;;;;;;5.22;3.33;;;17.40;64.30;;;;;;5050584;28;20131;-75
2022/10/14 12:00:12;;;;;;;5.68;3.25;;;17.40;64.30;;;;;;5057638;28;20083;-75
2022/10/14 12:02:45;;;;;;;4.55;2.90;;;17.30;64.30;;;;;;5067654;28;20051;-76
2022/10/14 12:05:16;;;;;;;5.68;3.10;;;17.40;64.30;;;;;;5069102;28;20049;-76
2022/10/14 12:07:46;;;;;;;4.32;2.97;;;17.30;64.30;;;;;;5070357;28;20053;-75
2022/10/14 12:10:17;;;;;;;4.10;3.05;;;17.40;64.40;;;;;;5069220;28;20048;-75
2022/10/14 12:12:44;;;;;;;5.00;3.10;;;17.40;64.40;;;;;;5068882;28;20048;-76
2022/10/14 12:15:14;;;;;;;4.88;3.13;;;17.40;64.30;;;;;;5069860;28;20554;-76
2022/10/14 12:17:46;;;;;;;5.20;4.00;;;17.40;64.30;;;;;;5069579;28;20048;-76
2022/10/14 12:20:17;;;;;;;4.13;2.83;;;17.40;64.40;;;;;;5069661;28;20051;-76
2022/10/14 12:22:44;;;;;;;;;;;17.40;64.40;;;;;;5070458;28;20044;-75
2022/10/14 12:25:12;;;;;;;5.47;3.22;;;17.40;64.40;;;;;;5070101;28;19920;-76
2022/10/14 12:27:39;;;;;;;5.07;3.10;;;17.30;64.50;;;;;;5070055;28;20404;-74
2022/10/14 12:30:17;;;;;;;3.92;3.00;;;17.40;64.50;;;;;;5069551;28;20063;-74
2022/10/14 12:32:59;;;;;;;4.32;3.10;;;17.40;64.50;;;;;;5067355;28;20048;-75
2022/10/14 12:35:49;;;;;;;4.28;2.80;;;17.40;64.40;;;;;;5072915;28;20057;-76
2022/10/14 12:38:16;;;;;;;5.32;3.20;;;17.40;64.40;;;;;;5074150;28;20560;-74
2022/10/14 12:40:42;;;;;;;4.50;3.33;;;17.40;64.50;;;;;;5073592;28;20044;-75
2022/10/14 12:43:17;;;;;;;4.80;3.45;;;17.40;64.50;;;;;;5074213;28;20549;-76
2022/10/14 12:46:03;;;;;;;5.10;3.42;;;17.40;64.40;;;;;;5074120;28;20271;-75
2022/10/14 12:48:33;;;;;;;4.22;3.22;;;17.40;64.50;;;;;;5073998;28;20083;-75
2022/10/14 12:51:08;;;;;;;4.25;3.25;;;17.50;64.60;;;;;;5074499;28;20560;-75
2022/10/14 12:53:34;;;;;;;;;;;17.50;64.60;;;;;;5073798;28;20058;-73
2022/10/14 12:56:03;;;;;;;4.43;3.13;;;17.40;64.60;;;;;;5073376;28;19920;-73
2022/10/14 12:58:31;;;;;;;4.20;3.00;;;17.40;64.70;;;;;;5073875;28;20079;-75
2022/10/14 13:01:00;;;;;;;4.70;3.45;;;17.50;64.70;;;;;;5073199;28;20048;-77
2022/10/14 13:03:27;;;;;;;5.30;3.25;;;17.50;64.60;;;;;;5073644;28;20057;-76